Time;durP1;ratioP1;P1;durP2;ratioP2;P2;SDS_P1;SDS_P2;PMS_P1;PMS_P2;Temp;Humidity;BMP_temperature;BMP_pressure;BME280_temperature;BME280_humidity;BME280_pressure;Samples;Min_cycle;Max_cycle;Signal;HPM_P1;HPM_P2
2023/05/01 00:01:23;;;;;;;;;;;;;;;8.77;100.00;95794.25;5072139;28;19954;-73
2023/05/01 00:03:49;;;;;;;;;;;;;;;8.76;100.00;95791.75;5063348;28;19929;-73
2023/05/01 00:06:15;;;;;;;;;;;;;;;8.73;100.00;95778.09;5078525;28;19931;-73
2023/05/01 00:08:42;;;;;;;;;;;;;;;8.75;100.00;95783.19;5079890;28;19954;-73
2023/05/01 00:11:08;;;;;;;;;;;;;;;8.72;100.00;95783.34;5077542;28;19924;-73
2023/05/01 00:13:35;;;;;;;;;;;;;;;8.67;100.00;95783.56;5068753;28;19958;-73
2023/05/01 00:16:07;;;;;;;;;;;;;;;8.53;100.00;95780.09;5080390;28;20507;-73
2023/05/01 00:18:33;;;;;;;;;;;;;;;8.45;100.00;95781.34;5072484;28;19982;-73
2023/05/01 00:21:00;;;;;;;;;;;;;;;8.43;100.00;95778.00;5077950;28;19955;-73
2023/05/01 00:23:26;;;;;;;;;;;;;;;8.39;100.00;95778.28;5079378;28;19982;-73
2023/05/01 00:25:53;;;;;;;;;;;;;;;8.48;100.00;95772.59;5081134;28;19931;-73
2023/05/01 00:28:19;;;;;;;;;;;;;;;8.51;100.00;95769.84;5074387;28;19932;-73
2023/05/01 00:30:46;;;;;;;;;;;;;;;8.48;100.00;95757.94;5087143;28;19935;-73
2023/05/01 00:33:14;;;;;;;;;;;;;;;8.58;100.00;95755.69;5073756;28;19924;-71
2023/05/01 00:35:43;;;;;;;;;;;;;;;8.47;100.00;95748.53;5074754;28;20302;-71
2023/05/01 00:38:09;;;;;;;;;;;;;;;8.44;100.00;95748.69;5082969;28;19935;-70
2023/05/01 00:40:41;;;;;;;;;;;;;;;8.51;100.00;95748.38;5080669;28;19924;-70
2023/05/01 00:43:07;;;;;;;;;;;;;;;8.38;100.00;95746.47;5086744;28;19978;-71
2023/05/01 00:45:34;;;;;;;;;;;;;;;8.51;100.00;95744.03;5084764;28;19932;-71
2023/05/01 00:48:00;;;;;;;;;;;;;;;8.60;100.00;95751.28;5084610;28;20382;-71
2023/05/01 00:50:28;;;;;;;;;;;;;;;8.67;100.00;95741.44;5085883;28;19931;-70
2023/05/01 00:52:55;;;;;;;;;;;;;;;8.70;100.00;95738.69;5081932;28;19924;-71
2023/05/01 00:55:21;;;;;;;;;;;;;;;8.76;100.00;95742.69;5080726;28;19974;-71
2023/05/01 00:57:48;;;;;;;;;;;;;;;8.80;100.00;95737.25;5084363;28;19929;-71
2023/05/01 01:00:15;;;;;;;;;;;;;;;8.85;100.00;95735.25;5087579;28;19928;-71
2023/05/01 01:02:42;;;;;;;;;;;;;;;8.86;100.00;95736.94;5080089;28;19936;-71
2023/05/01 01:05:08;;;;;;;;;;;;;;;8.86;100.00;95726.59;5084221;28;20367;-71
2023/05/01 01:07:41;;;;;;;;;;;;;;;8.86;100.00;95730.91;5069045;28;19977;-73
2023/05/01 01:10:17;;;;;;;;;;;;;;;8.92;100.00;95726.22;5088906;28;19977;-73
2023/05/01 01:12:46;;;;;;;;;;;;;;;8.82;100.00;95716.50;5085233;28;19932;-73
2023/05/01 01:15:18;;;;;;;;;;;;;;;8.73;100.00;95718.69;5074060;28;19969;-73
2023/05/01 01:17:51;;;;;;;;;;;;;;;8.77;100.00;95715.94;5078080;28;20291;-73
2023/05/01 01:20:23;;;;;;;;;;;;;;;8.74;100.00;95711.78;5080241;28;19924;-73
2023/05/01 01:22:58;;;;;;;;;;;;;;;8.73;100.00;95710.13;5077204;28;19929;-73
2023/05/01 01:25:47;;;;;;;;;;;;;;;8.76;100.00;95699.63;5079971;28;19938;-73
2023/05/01 01:28:23;;;;;;;;;;;;;;;8.80;100.00;95701.09;5066366;28;20018;-74
2023/05/01 01:31:08;;;;;;;;;;;;;;;8.72;100.00;95700.72;5072854;28;19925;-71
2023/05/01 01:33:54;;;;;;;;;;;;;;;8.62;100.00;95710.72;5071057;28;19931;-71
2023/05/01 01:36:25;;;;;;;;;;;;;;;8.62;100.00;95702.16;5068543;28;19936;-71
2023/05/01 01:38:54;;;;;;;;;;;;;;;8.59;100.00;95697.97;5082407;28;19929;-71
2023/05/01 01:41:26;;;;;;;;;;;;;;;8.61;100.00;95703.06;5086441;28;20685;-71
2023/05/01 01:43:54;;;;;;;;;;;;;;;8.61;100.00;95701.31;5076949;28;19948;-71
2023/05/01 01:46:21;;;;;;;;;;;;;;;8.56;100.00;95705.88;5076469;28;19928;-71
2023/05/01 01:48:48;;;;;;;;;;;;;;;8.56;100.00;95702.47;5072434;28;19939;-71
2023/05/01 01:51:18;;;;;;;;;;;;;;;8.65;100.00;95704.56;5074579;28;19969;-71
2023/05/01 01:53:48;;;;;;;;;;;;;;;8.51;100.00;95695.00;5081663;28;19928;-71
2023/05/01 01:56:14;;;;;;;;;;;;;;;8.40;100.00;95694.75;5078698;28;19950;-71
2023/05/01 01:58:42;;;;;;;;;;;;;;;8.38;100.00;95691.41;5073842;28;20448;-71
2023/05/01 02:01:09;;;;;;;;;;;;;;;8.30;100.00;95693.56;5076102;28;19928;-71
2023/05/01 02:03:37;;;;;;;;;;;;;;;8.35;100.00;95694.16;5087436;28;20364;-71
2023/05/01 02:06:04;;;;;;;;;;;;;;;8.38;100.00;95694.00;5071589;28;19925;-71
2023/05/01 02:08:34;;;;;;;;;;;;;;;8.32;100.00;95692.56;5080052;28;19928;-71
2023/05/01 02:11:01;;;;;;;;;;;;;;;8.25;100.00;95692.06;5078301;28;20194;-71
2023/05/01 02:13:28;;;;;;;;;;;;;;;8.26;100.00;95687.75;5080385;28;19993;-71
2023/05/01 02:15:56;;;;;;;;;;;;;;;8.25;100.00;95683.50;5072563;28;20384;-71
2023/05/01 02:18:23;;;;;;;;;;;;;;;8.25;100.00;95679.16;5079207;28;19928;-71
2023/05/01 02:20:50;;;;;;;;;;;;;;;8.26;100.00;95680.00;5088493;28;20041;-71
2023/05/01 02:23:17;;;;;;;;;;;;;;;8.24;100.00;95676.69;5077374;28;20405;-71
2023/05/01 02:25:45;;;;;;;;;;;;;;;8.19;100.00;95679.53;5071544;28;19931;-71
2023/05/01 02:28:12;;;;;;;;;;;;;;;8.23;100.00;95678.44;5085238;28;20427;-71
2023/05/01 02:30:39;;;;;;;;;;;;;;;8.28;100.00;95683.34;5080799;28;19924;-71
2023/05/01 02:33:06;;;;;;;;;;;;;;;8.29;100.00;95677.25;5078122;28;19978;-71
2023/05/01 02:35:32;;;;;;;;;;;;;;;8.32;100.00;95679.66;5079841;28;20333;-71
2023/05/01 02:37:59;;;;;;;;;;;;;;;8.35;100.00;95671.75;5075015;28;19929;-71
2023/05/01 02:40:26;;;;;;;;;;;;;;;8.38;100.00;95669.06;5067802;28;19928;-71
2023/05/01 02:42:53;;;;;;;;;;;;;;;8.43;100.00;95669.63;5078737;28;19924;-71
2023/05/01 02:45:20;;;;;;;;;;;;;;;8.45;100.00;95659.19;5068742;28;20001;-71
2023/05/01 02:47:49;;;;;;;;;;;;;;;8.48;100.00;95659.84;5081135;28;19924;-71
2023/05/01 02:50:16;;;;;;;;;;;;;;;8.53;100.00;95653.59;5059944;28;19963;-71
2023/05/01 02:52:43;;;;;;;;;;;;;;;8.46;100.00;95653.13;5082418;28;19986;-71
2023/05/01 02:55:09;;;;;;;;;;;;;;;8.37;100.00;95653.59;5070115;28;19925;-71
2023/05/01 02:57:36;;;;;;;;;;;;;;;8.40;100.00;95651.72;5080054;28;19927;-73
2023/05/01 03:00:08;;;;;;;;;;;;;;;8.31;100.00;95651.38;5074018;28;19948;-73
2023/05/01 03:02:34;;;;;;;;;;;;;;;8.28;100.00;95656.72;5079572;28;19931;-73
2023/05/01 03:05:00;;;;;;;;;;;;;;;8.24;100.00;95646.56;5084204;28;19928;-73
2023/05/01 03:07:33;;;;;;;;;;;;;;;8.36;100.00;95649.38;5070287;28;19924;-73
2023/05/01 03:10:00;;;;;;;;;;;;;;;8.29;100.00;95642.88;5082642;28;19924;-73
2023/05/01 03:12:26;;;;;;;;;;;;;;;8.24;100.00;95638.00;5079431;28;19953;-73
2023/05/01 03:14:52;;;;;;;;;;;;;;;8.25;100.00;95634.47;5078831;28;19932;-73
2023/05/01 03:17:20;;;;;;;;;;;;;;;8.28;100.00;95641.22;5076648;28;19924;-73
2023/05/01 03:19:48;;;;;;;;;;;;;;;8.27;100.00;95642.13;5082253;28;19932;-73
2023/05/01 03:22:14;;;;;;;;;;;;;;;8.22;100.00;95635.47;5071922;28;20409;-73
2023/05/01 03:24:41;;;;;;;;;;;;;;;8.10;100.00;95631.00;5077338;28;20039;-73
2023/05/01 03:27:07;;;;;;;;;;;;;;;8.10;100.00;95635.34;5079104;28;19929;-73
2023/05/01 03:29:33;;;;;;;;;;;;;;;8.08;100.00;95629.41;5083949;28;19928;-73
2023/05/01 03:32:00;;;;;;;;;;;;;;;8.11;100.00;95624.09;5078093;28;19978;-71
2023/05/01 03:34:28;;;;;;;;;;;;;;;8.12;100.00;95626.59;5079787;28;19935;-71
2023/05/01 03:36:55;;;;;;;;;;;;;;;8.16;100.00;95622.94;5079836;28;19930;-71
2023/05/01 03:39:21;;;;;;;;;;;;;;;8.18;100.00;95620.25;5080005;28;19939;-71
2023/05/01 03:41:47;;;;;;;;;;;;;;;8.22;100.00;95626.91;5076203;28;19969;-73
2023/05/01 03:44:13;;;;;;;;;;;;;;;8.21;100.00;95620.91;5084017;28;19924;-73
2023/05/01 03:46:40;;;;;;;;;;;;;;;8.24;100.00;95623.34;5083495;28;20341;-73
2023/05/01 03:49:06;;;;;;;;;;;;;;;8.29;100.00;95620.50;5079880;28;19932;-73
2023/05/01 03:51:34;;;;;;;;;;;;;;;8.32;100.00;95612.59;5079214;28;19924;-73
2023/05/01 03:54:00;;;;;;;;;;;;;;;8.24;100.00;95617.34;5076787;28;19924;-73
2023/05/01 03:56:26;;;;;;;;;;;;;;;8.17;100.00;95614.28;5079992;28;19928;-71
2023/05/01 03:58:53;;;;;;;;;;;;;;;8.16;100.00;95617.78;5079135;28;20309;-71
2023/05/01 04:01:19;;;;;;;;;;;;;;;8.18;100.00;95609.94;5079341;28;19924;-71
2023/05/01 04:03:47;;;;;;;;;;;;;;;8.24;100.00;95607.84;5081735;28;20022;-71
2023/05/01 04:06:13;;;;;;;;;;;;;;;8.31;100.00;95605.78;5080148;28;19931;-71
2023/05/01 04:08:40;;;;;;;;;;;;;;;8.29;100.00;95606.75;5076049;28;20321;-71
2023/05/01 04:11:07;;;;;;;;;;;;;;;8.27;100.00;95600.84;5065240;28;19925;-71
2023/05/01 04:13:33;;;;;;;;;;;;;;;8.24;100.00;95610.44;5071098;28;19928;-73
2023/05/01 04:15:59;;;;;;;;;;;;;;;8.20;100.00;95610.69;5076621;28;19925;-73
2023/05/01 04:18:26;;;;;;;;;;;;;;;8.17;100.00;95609.13;5072170;28;19928;-73
2023/05/01 04:20:52;;;;;;;;;;;;;;;8.20;100.00;95608.13;5076444;28;19928;-73
2023/05/01 04:23:19;;;;;;;;;;;;;;;8.22;100.00;95608.84;5071037;28;20407;-73
2023/05/01 04:25:46;;;;;;;;;;;;;;;8.24;100.00;95613.00;5066884;28;20453;-74
2023/05/01 04:28:13;;;;;;;;;;;;;;;8.30;100.00;95611.00;5069488;28;20360;-73
2023/05/01 04:30:39;;;;;;;;;;;;;;;8.18;100.00;95615.94;5069656;28;19925;-73
2023/05/01 04:33:10;;;;;;;;;;;;;;;8.25;100.00;95613.84;5074754;28;19924;-73
2023/05/01 04:35:37;;;;;;;;;;;;;;;8.31;100.00;95616.09;5069630;28;19936;-73
2023/05/01 04:38:04;;;;;;;;;;;;;;;8.34;100.00;95617.66;5078706;28;19969;-73
2023/05/01 04:40:30;;;;;;;;;;;;;;;8.37;100.00;95617.47;5070723;28;19970;-73
2023/05/01 04:42:58;;;;;;;;;;;;;;;8.41;100.00;95617.25;5084821;28;19928;-73
2023/05/01 04:45:24;;;;;;;;;;;;;;;8.45;100.00;95618.75;5078394;28;19975;-73
2023/05/01 04:47:50;;;;;;;;;;;;;;;8.46;100.00;95617.84;5077923;28;19932;-73
2023/05/01 04:50:17;;;;;;;;;;;;;;;8.46;100.00;95617.84;5080297;28;19978;-71
2023/05/01 04:52:43;;;;;;;;;;;;;;;8.52;100.00;95620.97;5073933;28;20521;-71
2023/05/01 04:55:10;;;;;;;;;;;;;;;8.52;100.00;95614.06;5075511;28;19928;-71
2023/05/01 04:57:36;;;;;;;;;;;;;;;8.55;100.00;95620.81;5072198;28;19928;-71
2023/05/01 05:00:04;;;;;;;;;;;;;;;8.63;100.00;95616.03;5067776;28;19931;-71
2023/05/01 05:02:30;;;;;;;;;;;;;;;8.71;100.00;95619.84;5070627;28;20020;-71
2023/05/01 05:04:57;;;;;;;;;;;;;;;8.71;100.00;95614.69;5076797;28;20349;-70
2023/05/01 05:07:23;;;;;;;;;;;;;;;8.69;100.00;95616.50;5077169;28;19925;-71
2023/05/01 05:09:49;;;;;;;;;;;;;;;8.65;100.00;95620.19;5074451;28;20390;-71
2023/05/01 05:12:16;;;;;;;;;;;;;;;8.60;100.00;95619.63;5060485;28;19929;-71
2023/05/01 05:14:42;;;;;;;;;;;;;;;8.57;100.00;95619.81;5074105;28;19929;-71
2023/05/01 05:17:09;;;;;;;;;;;;;;;8.54;100.00;95626.91;5081474;28;19965;-71
2023/05/01 05:19:36;;;;;;;;;;;;;;;8.55;100.00;95623.38;5078079;28;19936;-71
2023/05/01 05:22:02;;;;;;;;;;;;;;;8.42;100.00;95623.25;5074059;28;20314;-71
2023/05/01 05:24:29;;;;;;;;;;;;;;;8.31;100.00;95623.00;5070973;28;19931;-71
2023/05/01 05:26:55;;;;;;;;;;;;;;;8.29;100.00;95623.06;5080975;28;19982;-71
2023/05/01 05:29:21;;;;;;;;;;;;;;;8.33;100.00;95623.72;5082605;28;19928;-71
2023/05/01 05:31:47;;;;;;;;;;;;;;;8.30;100.00;95623.91;5073396;28;19978;-71
2023/05/01 05:34:16;;;;;;;;;;;;;;;8.22;100.00;95626.91;5073502;28;19930;-71
2023/05/01 05:36:42;;;;;;;;;;;;;;;8.26;100.00;95623.25;5079088;28;19972;-71
2023/05/01 05:39:08;;;;;;;;;;;;;;;8.34;100.00;95620.22;5080868;28;19931;-71
2023/05/01 05:41:35;;;;;;;;;;;;;;;8.43;100.00;95620.59;5078907;28;20576;-71
2023/05/01 05:44:01;;;;;;;;;;;;;;;8.53;100.00;95622.63;5077558;28;19983;-73
2023/05/01 05:46:28;;;;;;;;;;;;;;;8.60;100.00;95626.53;5067353;28;19924;-73
2023/05/01 05:48:54;;;;;;;;;;;;;;;8.56;100.00;95622.47;5070340;28;19925;-73
2023/05/01 05:51:21;;;;;;;;;;;;;;;8.58;100.00;95623.22;5076825;28;19928;-73
2023/05/01 05:53:48;;;;;;;;;;;;;;;8.65;100.00;95620.19;5083802;28;19924;-73
2023/05/01 05:56:14;;;;;;;;;;;;;;;8.73;100.00;95622.34;5073075;28;19924;-73
2023/05/01 05:58:40;;;;;;;;;;;;;;;8.71;100.00;95619.00;5077514;28;19925;-73
2023/05/01 06:01:08;;;;;;;;;;;;;;;8.76;100.00;95626.50;5072506;28;19925;-73
2023/05/01 06:03:34;;;;;;;;;;;;;;;8.78;100.00;95633.22;5082429;28;19924;-73
2023/05/01 06:06:01;;;;;;;;;;;;;;;8.73;100.00;95637.81;5083399;28;19967;-71
2023/05/01 06:08:28;;;;;;;;;;;;;;;8.84;100.00;95625.13;5081740;28;19924;-71
2023/05/01 06:10:55;;;;;;;;;;;;;;;8.80;100.00;95631.38;5083088;28;19947;-71
2023/05/01 06:13:21;;;;;;;;;;;;;;;8.85;100.00;95628.53;5075708;28;20398;-71
2023/05/01 06:15:47;;;;;;;;;;;;;;;8.75;100.00;95622.22;5083236;28;19924;-71
2023/05/01 06:18:14;;;;;;;;;;;;;;;8.83;100.00;95625.22;5083751;28;19928;-71
2023/05/01 06:20:41;;;;;;;;;;;;;;;8.77;100.00;95628.97;5082981;28;19924;-71
2023/05/01 06:23:08;;;;;;;;;;;;;;;8.85;100.00;95625.94;5080431;28;19932;-71
2023/05/01 06:25:36;;;;;;;;;;;;;;;8.95;100.00;95627.91;5084519;28;20332;-71
2023/05/01 06:28:02;;;;;;;;;;;;;;;8.92;100.00;95622.09;5081855;28;20023;-73
2023/05/01 06:30:29;;;;;;;;;;;;;;;8.89;100.00;95628.25;5086461;28;19971;-73
2023/05/01 06:32:55;;;;;;;;;;;;;;;8.87;100.00;95630.13;5083454;28;20019;-73
2023/05/01 06:35:22;;;;;;;;;;;;;;;8.91;100.00;95631.59;5078465;28;20409;-73
2023/05/01 06:37:48;;;;;;;;;;;;;;;8.82;100.00;95624.38;5082284;28;19928;-73
2023/05/01 06:40:14;;;;;;;;;;;;;;;8.94;100.00;95630.59;5066455;28;19970;-73
2023/05/01 06:42:42;;;;;;;;;;;;;;;9.09;100.00;95637.44;5080913;28;19928;-74
2023/05/01 06:45:09;;;;;;;;;;;;;;;9.08;100.00;95634.94;5074506;28;19928;-73
2023/05/01 06:47:35;;;;;;;;;;;;;;;9.17;100.00;95632.63;5073837;28;20410;-74
2023/05/01 06:50:01;;;;;;;;;;;;;;;9.35;100.00;95635.06;5071533;28;19955;-74
2023/05/01 06:52:27;;;;;;;;;;;;;;;9.35;100.00;95632.47;5075308;28;19932;-74
2023/05/01 06:54:54;;;;;;;;;;;;;;;9.32;100.00;95638.66;5074075;28;19959;-74
2023/05/01 06:57:20;;;;;;;;;;;;;;;9.39;100.00;95632.19;5087249;28;20382;-73
2023/05/01 06:59:48;;;;;;;;;;;;;;;9.49;100.00;95641.97;5077216;28;20341;-74
2023/05/01 07:02:14;;;;;;;;;;;;;;;9.49;100.00;95645.38;5076220;28;19939;-74
2023/05/01 07:04:40;;;;;;;;;;;;;;;9.51;100.00;95640.13;5078175;28;19935;-74
2023/05/01 07:07:07;;;;;;;;;;;;;;;9.59;100.00;95648.25;5075740;28;19950;-74
2023/05/01 07:09:33;;;;;;;;;;;;;;;9.65;100.00;95643.53;5076849;28;19939;-74
2023/05/01 07:11:59;;;;;;;;;;;;;;;9.72;100.00;95653.50;5072804;28;19931;-74
2023/05/01 07:14:25;;;;;;;;;;;;;;;9.80;100.00;95646.94;5073682;28;19929;-74
2023/05/01 07:16:54;;;;;;;;;;;;;;;9.86;100.00;95641.41;5079020;28;19925;-75
2023/05/01 07:19:20;;;;;;;;;;;;;;;9.81;100.00;95637.41;5087715;28;19931;-74
2023/05/01 07:21:46;;;;;;;;;;;;;;;9.78;100.00;95635.00;5077414;28;19925;-74
2023/05/01 07:24:13;;;;;;;;;;;;;;;9.84;100.00;95635.47;5070797;28;19924;-72
2023/05/01 07:26:39;;;;;;;;;;;;;;;9.98;100.00;95633.78;5075472;28;20436;-72
2023/05/01 07:29:05;;;;;;;;;;;;;;;10.04;100.00;95630.81;5082730;28;20387;-73
2023/05/01 07:31:31;;;;;;;;;;;;;;;10.09;100.00;95632.19;5080347;28;19932;-73
2023/05/01 07:33:59;;;;;;;;;;;;;;;10.13;100.00;95618.13;5083290;28;19924;-73
2023/05/01 07:36:26;;;;;;;;;;;;;;;10.27;100.00;95639.72;5079893;28;19928;-73
2023/05/01 07:38:52;;;;;;;;;;;;;;;10.34;100.00;95628.06;5076421;28;19932;-73
2023/05/01 07:41:18;;;;;;;;;;;;;;;10.43;100.00;95630.06;5087321;28;19928;-73
2023/05/01 07:43:44;;;;;;;;;;;;;;;10.52;100.00;95621.69;5085782;28;19928;-73
2023/05/01 07:46:11;;;;;;;;;;;;;;;10.58;100.00;95623.91;5080686;28;19981;-73
2023/05/01 07:48:37;;;;;;;;;;;;;;;10.72;100.00;95627.34;5081493;28;20264;-73
2023/05/01 07:51:05;;;;;;;;;;;;;;;10.83;100.00;95625.72;5079683;28;19932;-73
2023/05/01 07:53:32;;;;;;;;;;;;;;;10.79;100.00;95626.00;5080178;28;19928;-75
2023/05/01 07:56:04;;;;;;;;;;;;;;;10.93;100.00;95625.91;5081460;28;20019;-73
2023/05/01 07:58:31;;;;;;;;;;;;;;;11.01;100.00;95621.09;5083493;28;19934;-73
2023/05/01 08:00:57;;;;;;;;;;;;;;;11.04;100.00;95628.63;5074171;28;19978;-73
2023/05/01 08:03:23;;;;;;;;;;;;;;;11.01;100.00;95625.41;5082272;28;19954;-73
2023/05/01 08:05:50;;;;;;;;;;;;;;;11.00;100.00;95626.34;5083276;28;19924;-73
2023/05/01 08:08:20;;;;;;;;;;;;;;;11.09;100.00;95623.16;5074211;28;20328;-73
2023/05/01 08:10:46;;;;;;;;;;;;;;;11.31;100.00;95630.28;5079989;28;20424;-73
2023/05/01 08:13:12;;;;;;;;;;;;;;;11.42;100.00;95626.97;5083235;28;19928;-72
2023/05/01 08:15:41;;;;;;;;;;;;;;;11.57;100.00;95621.56;5068366;28;19977;-73
2023/05/01 08:18:08;;;;;;;;;;;;;;;11.69;100.00;95619.06;5080383;28;19966;-73
2023/05/01 08:20:35;;;;;;;;;;;;;;;11.74;100.00;95624.75;5080921;28;19929;-73
2023/05/01 08:23:01;;;;;;;;;;;;;;;11.89;100.00;95622.88;5071996;28;19981;-73
2023/05/01 08:25:30;;;;;;;;;;;;;;;11.76;100.00;95621.13;5081103;28;19924;-73
2023/05/01 08:27:56;;;;;;;;;;;;;;;11.74;100.00;95619.56;5076773;28;20450;-73
2023/05/01 08:30:23;;;;;;;;;;;;;;;11.79;100.00;95622.66;5084580;28;19928;-74
2023/05/01 08:32:49;;;;;;;;;;;;;;;12.15;100.00;95618.44;5080793;28;19924;-73
2023/05/01 08:35:15;;;;;;;;;;;;;;;12.63;100.00;95618.44;5071462;28;19928;-74
2023/05/01 08:37:41;;;;;;;;;;;;;;;12.86;100.00;95614.97;5075805;28;20471;-73
2023/05/01 08:40:08;;;;;;;;;;;;;;;13.27;100.00;95614.50;5074447;28;19924;-73
2023/05/01 08:42:37;;;;;;;;;;;;;;;13.47;100.00;95618.19;5077268;28;20420;-73
2023/05/01 08:45:04;;;;;;;;;;;;;;;13.64;100.00;95616.88;5079493;28;19924;-74
2023/05/01 08:47:30;;;;;;;;;;;;;;;13.64;100.00;95609.06;5076660;28;20391;-73
2023/05/01 08:49:57;;;;;;;;;;;;;;;13.58;100.00;95621.75;5084086;28;19931;-73
2023/05/01 08:52:26;;;;;;;;;;;;;;;13.63;100.00;95617.81;5078168;28;19932;-73
2023/05/01 08:54:55;;;;;;;;;;;;;;;13.72;100.00;95617.13;5076217;28;20440;-73
2023/05/01 08:57:22;;;;;;;;;;;;;;;13.70;100.00;95611.19;5086137;28;19925;-73
2023/05/01 08:59:52;;;;;;;;;;;;;;;13.85;100.00;95610.94;5080877;28;19925;-73
2023/05/01 09:02:19;;;;;;;;;;;;;;;14.03;100.00;95612.09;5085701;28;19924;-74
2023/05/01 09:04:46;;;;;;;;;;;;;;;13.95;100.00;95612.72;5074156;28;19936;-74
2023/05/01 09:07:13;;;;;;;;;;;;;;;13.74;100.00;95614.38;5088210;28;20421;-73
2023/05/01 09:09:39;;;;;;;;;;;;;;;13.85;100.00;95609.16;5080272;28;19933;-73
2023/05/01 09:12:11;;;;;;;;;;;;;;;13.94;100.00;95603.25;5079689;28;19950;-73
2023/05/01 09:14:37;;;;;;;;;;;;;;;14.15;100.00;95605.91;5085902;28;19931;-73
2023/05/01 09:17:05;;;;;;;;;;;;;;;14.17;100.00;95604.03;5080357;28;19924;-71
2023/05/01 09:19:31;;;;;;;;;;;;;;;14.15;100.00;95610.31;5074483;28;20391;-73
2023/05/01 09:21:57;;;;;;;;;;;;;;;14.26;100.00;95616.31;5081471;28;19931;-73
2023/05/01 09:24:24;;;;;;;;;;;;;;;14.06;100.00;95611.06;5080185;28;19924;-73
2023/05/01 09:26:51;;;;;;;;;;;;;;;14.08;100.00;95609.13;5084722;28;19925;-73
2023/05/01 09:29:32;;;;;;;;;;;;;;;14.27;100.00;95610.13;5069048;28;19970;-74
2023/05/01 09:32:12;;;;;;;;;;;;;;;14.29;100.00;95605.66;5082004;28;20007;-72
2023/05/01 09:34:39;;;;;;;;;;;;;;;14.70;100.00;95611.09;5084872;28;20424;-74
2023/05/01 09:37:06;;;;;;;;;;;;;;;14.39;100.00;95608.34;5077249;28;19928;-74
2023/05/01 09:39:32;;;;;;;;;;;;;;;14.44;100.00;95606.19;5080686;28;19928;-74
2023/05/01 09:41:58;;;;;;;;;;;;;;;14.27;100.00;95607.53;5078331;28;20442;-73
2023/05/01 09:44:25;;;;;;;;;;;;;;;14.39;100.00;95604.94;5081795;28;20340;-73
2023/05/01 09:46:51;;;;;;;;;;;;;;;14.37;100.00;95617.22;5086186;28;19971;-74
2023/05/01 09:49:18;;;;;;;;;;;;;;;14.18;100.00;95610.88;5072510;28;20375;-75
2023/05/01 09:51:45;;;;;;;;;;;;;;;14.23;100.00;95606.13;5082299;28;20340;-74
2023/05/01 09:54:17;;;;;;;;;;;;;;;14.32;100.00;95608.97;5068440;28;20064;-74
2023/05/01 09:56:46;;;;;;;;;;;;;;;14.03;100.00;95619.91;5071231;28;19940;-76
2023/05/01 09:59:16;;;;;;;;;;;;;;;13.97;100.00;95618.63;5081965;28;19985;-74
2023/05/01 10:01:44;;;;;;;;;;;;;;;14.01;100.00;95617.41;5072226;28;19931;-75
2023/05/01 10:04:10;;;;;;;;;;;;;;;13.86;100.00;95615.19;5084651;28;19924;-75
2023/05/01 10:06:37;;;;;;;;;;;;;;;14.11;100.00;95611.50;5075168;28;19924;-75
2023/05/01 10:09:05;;;;;;;;;;;;;;;14.06;100.00;95611.88;5086923;28;19935;-75
2023/05/01 10:11:47;;;;;;;;;;;;;;;14.11;100.00;95616.72;5075981;28;20280;-75
2023/05/01 10:14:13;;;;;;;;;;;;;;;14.18;100.00;95617.88;5072483;28;19928;-77
2023/05/01 10:16:39;;;;;;;;;;;;;;;14.02;100.00;95615.66;5073571;28;20015;-76
2023/05/01 10:19:06;;;;;;;;;;;;;;;13.86;100.00;95617.81;5068366;28;19957;-75
2023/05/01 10:21:33;;;;;;;;;;;;;;;13.75;100.00;95613.44;5078554;28;19925;-75
2023/05/01 10:24:00;;;;;;;;;;;;;;;13.77;100.00;95620.19;5073023;28;19931;-75
2023/05/01 10:26:28;;;;;;;;;;;;;;;13.78;100.00;95621.84;5076184;28;20328;-75
2023/05/01 10:28:57;;;;;;;;;;;;;;;13.89;100.00;95617.56;5085183;28;20435;-76
2023/05/01 10:31:23;;;;;;;;;;;;;;;13.97;100.00;95626.41;5083059;28;20378;-75
2023/05/01 10:33:51;;;;;;;;;;;;;;;13.98;100.00;95622.06;5087169;28;19928;-75
2023/05/01 10:36:21;;;;;;;;;;;;;;;13.97;100.00;95618.63;5081957;28;19931;-75
2023/05/01 10:38:47;;;;;;;;;;;;;;;14.01;100.00;95624.41;5076630;28;19924;-75
2023/05/01 10:41:14;;;;;;;;;;;;;;;14.09;100.00;95616.84;5066689;28;20027;-75
2023/05/01 10:43:42;;;;;;;;;;;;;;;14.22;100.00;95627.09;5085819;28;19978;-75
2023/05/01 10:46:28;;;;;;;;;;;;;;;14.10;100.00;95622.88;5072275;28;19925;-75
2023/05/01 10:48:55;;;;;;;;;;;;;;;14.21;100.00;95609.81;5078608;28;19931;-75
2023/05/01 10:51:22;;;;;;;;;;;;;;;14.11;100.00;95620.13;5071332;28;20022;-75
2023/05/01 10:53:49;;;;;;;;;;;;;;;14.13;100.00;95615.66;5082443;28;19924;-75
2023/05/01 10:56:30;;;;;;;;;;;;;;;14.40;100.00;95615.22;5067930;28;19928;-75
2023/05/01 10:59:03;;;;;;;;;;;;;;;14.76;100.00;95619.25;5076425;28;20386;-75
2023/05/01 11:01:30;;;;;;;;;;;;;;;14.89;100.00;95618.25;5074149;28;19969;-75
2023/05/01 11:03:57;;;;;;;;;;;;;;;15.14;100.00;95617.88;5082989;28;19927;-75
2023/05/01 11:06:24;;;;;;;;;;;;;;;15.10;100.00;95613.03;5080479;28;19924;-75
2023/05/01 11:08:50;;;;;;;;;;;;;;;15.13;100.00;95612.75;5080644;28;19928;-75
2023/05/01 11:11:37;;;;;;;;;;;;;;;15.29;100.00;95607.94;5077485;28;21320;-75
2023/05/01 11:14:07;;;;;;;;;;;;;;;15.49;100.00;95614.06;5081742;28;19925;-75
2023/05/01 11:16:42;;;;;;;;;;;;;;;15.51;100.00;95617.38;5082448;28;19928;-75
2023/05/01 11:19:09;;;;;;;;;;;;;;;15.46;100.00;95609.94;5066284;28;19925;-73
2023/05/01 11:21:37;;;;;;;;;;;;;;;15.67;100.00;95603.88;5071910;28;20734;-75
2023/05/01 11:24:03;;;;;;;;;;;;;;;15.44;100.00;95606.63;5080267;28;19935;-75
2023/05/01 11:26:30;;;;;;;;;;;;;;;15.25;100.00;95603.94;5076472;28;20020;-75
2023/05/01 11:28:57;;;;;;;;;;;;;;;15.26;100.00;95605.56;5079247;28;19935;-75
2023/05/01 11:31:25;;;;;;;;;;;;;;;15.38;100.00;95596.69;5069068;28;19969;-75
2023/05/01 11:33:51;;;;;;;;;;;;;;;15.53;100.00;95599.78;5078744;28;19928;-76
2023/05/01 11:36:18;;;;;;;;;;;;;;;15.66;100.00;95599.63;5074724;28;19924;-76
2023/05/01 11:38:51;;;;;;;;;;;;;;;15.01;100.00;95596.34;5077652;28;20345;-76
2023/05/01 11:41:19;;;;;;;;;;;;;;;14.92;100.00;95595.34;5076457;28;19990;-76
2023/05/01 11:43:50;;;;;;;;;;;;;;;14.97;100.00;95597.56;5083527;28;19932;-76
2023/05/01 11:46:22;;;;;;;;;;;;;;;15.14;100.00;95594.38;5070498;28;20011;-76
2023/05/01 11:48:50;;;;;;;;;;;;;;;15.52;100.00;95592.94;5082614;28;19924;-75
2023/05/01 11:51:17;;;;;;;;;;;;;;;15.65;100.00;95590.97;5084610;28;19970;-76
2023/05/01 11:53:57;;;;;;;;;;;;;;;15.61;100.00;95591.31;5079276;28;20391;-75
2023/05/01 11:56:23;;;;;;;;;;;;;;;15.45;100.00;95597.84;5073814;28;19950;-75
2023/05/01 11:58:49;;;;;;;;;;;;;;;15.18;100.00;95594.97;5081607;28;19924;-75
2023/05/01 12:01:16;;;;;;;;;;;;;;;15.27;100.00;95593.34;5077501;28;19957;-75
2023/05/01 12:03:43;;;;;;;;;;;;;;;15.07;100.00;95595.84;5074773;28;19928;-75
2023/05/01 12:06:12;;;;;;;;;;;;;;;14.64;100.00;95599.38;5078490;28;19928;-75
2023/05/01 12:08:42;;;;;;;;;;;;;;;14.43;100.00;95588.91;5066725;28;20034;-75
2023/05/01 12:11:09;;;;;;;;;;;;;;;14.50;100.00;95586.69;5067775;28;20043;-75
2023/05/01 12:13:35;;;;;;;;;;;;;;;14.62;100.00;95590.06;5068153;28;20371;-75
2023/05/01 12:16:03;;;;;;;;;;;;;;;15.01;100.00;95593.75;5070423;28;19935;-74
2023/05/01 12:18:29;;;;;;;;;;;;;;;14.91;100.00;95588.50;5078233;28;20332;-75
2023/05/01 12:20:55;;;;;;;;;;;;;;;14.85;100.00;95601.19;5074196;28;20673;-76
2023/05/01 12:23:32;;;;;;;;;;;;;;;14.96;100.00;95594.13;5070964;28;20010;-75
2023/05/01 12:25:58;;;;;;;;;;;;;;;15.03;100.00;95596.25;5063605;28;20023;-75
2023/05/01 12:28:26;;;;;;;;;;;;;;;14.82;100.00;95596.22;5075934;28;20027;-75
2023/05/01 12:30:55;;;;;;;;;;;;;;;14.93;100.00;95598.78;5081451;28;19924;-75
2023/05/01 12:33:21;;;;;;;;;;;;;;;14.50;100.00;95595.31;5077441;28;19942;-75
2023/05/01 12:35:48;;;;;;;;;;;;;;;14.55;100.00;95596.72;5074854;28;19924;-75
2023/05/01 12:38:15;;;;;;;;;;;;;;;14.22;100.00;95598.44;5077497;28;19924;-75
2023/05/01 12:40:53;;;;;;;;;;;;;;;13.94;100.00;95600.66;5071022;28;19924;-75
2023/05/01 12:43:20;;;;;;;;;;;;;;;13.79;100.00;95605.28;5079131;28;20318;-75
2023/05/01 12:45:50;;;;;;;;;;;;;;;13.73;100.00;95595.34;5079844;28;19932;-76